sensor_id;sensor_type;location;lat;lon;timestamp;P1;durP1;ratioP1;P2;durP2;ratioP2
65187;SDS011;51775;51.148;6.950;2023-05-14T00:01:49;3.33;;;2.60;;
65187;SDS011;51775;51.148;6.950;2023-05-14T00:04:14;3.22;;;2.50;;
65187;SDS011;51775;51.148;6.950;2023-05-14T00:06:39;3.10;;;2.50;;
65187;SDS011;51775;51.148;6.950;2023-05-14T00:09:04;3.05;;;2.40;;
65187;SDS011;51775;51.148;6.950;2023-05-14T00:11:30;3.45;;;2.50;;
65187;SDS011;51775;51.148;6.950;2023-05-14T00:13:55;3.83;;;2.60;;
65187;SDS011;51775;51.148;6.950;2023-05-14T00:18:49;3.00;;;2.30;;
65187;SDS011;51775;51.148;6.950;2023-05-14T00:21:15;2.80;;;2.13;;
65187;SDS011;51775;51.148;6.950;2023-05-14T00:23:40;3.25;;;2.30;;
65187;SDS011;51775;51.148;6.950;2023-05-14T00:26:05;3.45;;;2.50;;
65187;SDS011;51775;51.148;6.950;2023-05-14T00:28:30;3.50;;;2.30;;
65187;SDS011;51775;51.148;6.950;2023-05-14T00:31:02;2.63;;;2.10;;
65187;SDS011;51775;51.148;6.950;2023-05-14T00:33:27;3.05;;;2.20;;
65187;SDS011;51775;51.148;6.950;2023-05-14T00:35:52;3.45;;;2.25;;
65187;SDS011;51775;51.148;6.950;2023-05-14T00:38:17;2.90;;;2.20;;
65187;SDS011;51775;51.148;6.950;2023-05-14T00:40:43;3.15;;;2.25;;
65187;SDS011;51775;51.148;6.950;2023-05-14T00:43:09;2.58;;;2.08;;
65187;SDS011;51775;51.148;6.950;2023-05-14T00:45:34;4.15;;;2.17;;
65187;SDS011;51775;51.148;6.950;2023-05-14T00:47:59;2.58;;;2.08;;
65187;SDS011;51775;51.148;6.950;2023-05-14T00:50:24;2.92;;;2.17;;
65187;SDS011;51775;51.148;6.950;2023-05-14T00:52:50;3.78;;;2.30;;
65187;SDS011;51775;51.148;6.950;2023-05-14T00:55:15;2.92;;;2.22;;
65187;SDS011;51775;51.148;6.950;2023-05-14T00:57:40;3.13;;;2.20;;
65187;SDS011;51775;51.148;6.950;2023-05-14T01:00:06;2.90;;;2.10;;
65187;SDS011;51775;51.148;6.950;2023-05-14T01:05:02;3.03;;;2.20;;
65187;SDS011;51775;51.148;6.950;2023-05-14T01:10:05;3.45;;;2.20;;
65187;SDS011;51775;51.148;6.950;2023-05-14T01:15:10;3.13;;;2.10;;
65187;SDS011;51775;51.148;6.950;2023-05-14T01:17:44;2.95;;;2.10;;
65187;SDS011;51775;51.148;6.950;2023-05-14T01:20:12;2.67;;;2.20;;
65187;SDS011;51775;51.148;6.950;2023-05-14T01:22:38;3.08;;;2.20;;
65187;SDS011;51775;51.148;6.950;2023-05-14T01:25:04;3.20;;;2.08;;
65187;SDS011;51775;51.148;6.950;2023-05-14T01:30:02;2.90;;;2.20;;
65187;SDS011;51775;51.148;6.950;2023-05-14T01:32:47;2.65;;;2.00;;
65187;SDS011;51775;51.148;6.950;2023-05-14T01:35:15;3.00;;;2.20;;
65187;SDS011;51775;51.148;6.950;2023-05-14T01:37:41;2.67;;;2.20;;
65187;SDS011;51775;51.148;6.950;2023-05-14T01:40:08;2.53;;;2.08;;
65187;SDS011;51775;51.148;6.950;2023-05-14T01:42:34;2.80;;;1.98;;
65187;SDS011;51775;51.148;6.950;2023-05-14T01:45:01;2.80;;;2.25;;
65187;SDS011;51775;51.148;6.950;2023-05-14T01:47:26;2.83;;;2.17;;
65187;SDS011;51775;51.148;6.950;2023-05-14T01:49:52;2.95;;;2.30;;
65187;SDS011;51775;51.148;6.950;2023-05-14T01:52:17;2.92;;;2.28;;
65187;SDS011;51775;51.148;6.950;2023-05-14T01:54:42;3.05;;;2.15;;
65187;SDS011;51775;51.148;6.950;2023-05-14T01:57:07;3.20;;;2.20;;
65187;SDS011;51775;51.148;6.950;2023-05-14T01:59:33;2.70;;;2.00;;
65187;SDS011;51775;51.148;6.950;2023-05-14T02:01:58;3.00;;;2.38;;
65187;SDS011;51775;51.148;6.950;2023-05-14T02:04:23;2.88;;;2.10;;
65187;SDS011;51775;51.148;6.950;2023-05-14T02:06:48;2.47;;;1.93;;
65187;SDS011;51775;51.148;6.950;2023-05-14T02:09:14;2.78;;;1.95;;
65187;SDS011;51775;51.148;6.950;2023-05-14T02:11:39;2.83;;;2.03;;
65187;SDS011;51775;51.148;6.950;2023-05-14T02:14:04;3.17;;;2.28;;
65187;SDS011;51775;51.148;6.950;2023-05-14T02:16:29;3.00;;;2.20;;
65187;SDS011;51775;51.148;6.950;2023-05-14T02:18:55;3.03;;;2.20;;
65187;SDS011;51775;51.148;6.950;2023-05-14T02:21:20;2.50;;;2.00;;
65187;SDS011;51775;51.148;6.950;2023-05-14T02:23:45;2.70;;;2.00;;
65187;SDS011;51775;51.148;6.950;2023-05-14T02:26:10;3.03;;;2.22;;
65187;SDS011;51775;51.148;6.950;2023-05-14T02:28:36;2.47;;;1.98;;
65187;SDS011;51775;51.148;6.950;2023-05-14T02:31:01;2.60;;;2.05;;
65187;SDS011;51775;51.148;6.950;2023-05-14T02:33:26;2.80;;;2.00;;
65187;SDS011;51775;51.148;6.950;2023-05-14T02:35:52;2.90;;;2.17;;
65187;SDS011;51775;51.148;6.950;2023-05-14T02:38:17;2.80;;;2.00;;
65187;SDS011;51775;51.148;6.950;2023-05-14T02:40:42;2.50;;;2.00;;
65187;SDS011;51775;51.148;6.950;2023-05-14T02:43:08;2.53;;;2.00;;
65187;SDS011;51775;51.148;6.950;2023-05-14T02:45:33;2.83;;;2.05;;
65187;SDS011;51775;51.148;6.950;2023-05-14T02:47:59;2.38;;;1.88;;
65187;SDS011;51775;51.148;6.950;2023-05-14T02:50:24;3.05;;;2.10;;
65187;SDS011;51775;51.148;6.950;2023-05-14T02:52:49;2.60;;;2.00;;
65187;SDS011;51775;51.148;6.950;2023-05-14T02:55:15;2.70;;;2.10;;
65187;SDS011;51775;51.148;6.950;2023-05-14T02:57:40;2.88;;;2.10;;
65187;SDS011;51775;51.148;6.950;2023-05-14T03:00:05;2.80;;;2.08;;
65187;SDS011;51775;51.148;6.950;2023-05-14T03:02:31;3.20;;;2.40;;
65187;SDS011;51775;51.148;6.950;2023-05-14T03:04:56;2.47;;;1.90;;
65187;SDS011;51775;51.148;6.950;2023-05-14T03:07:33;2.85;;;2.03;;
65187;SDS011;51775;51.148;6.950;2023-05-14T03:09:58;2.60;;;2.10;;
65187;SDS011;51775;51.148;6.950;2023-05-14T03:12:23;3.10;;;2.20;;
65187;SDS011;51775;51.148;6.950;2023-05-14T03:14:49;2.35;;;1.85;;
65187;SDS011;51775;51.148;6.950;2023-05-14T03:17:14;3.10;;;2.20;;
65187;SDS011;51775;51.148;6.950;2023-05-14T03:19:39;2.85;;;2.10;;
65187;SDS011;51775;51.148;6.950;2023-05-14T03:22:04;2.67;;;2.03;;
65187;SDS011;51775;51.148;6.950;2023-05-14T03:24:30;2.63;;;2.03;;
65187;SDS011;51775;51.148;6.950;2023-05-14T03:26:55;2.83;;;2.00;;
65187;SDS011;51775;51.148;6.950;2023-05-14T03:29:20;3.10;;;2.10;;
65187;SDS011;51775;51.148;6.950;2023-05-14T03:31:45;3.38;;;2.40;;
65187;SDS011;51775;51.148;6.950;2023-05-14T03:34:12;3.28;;;2.28;;
65187;SDS011;51775;51.148;6.950;2023-05-14T03:36:37;3.03;;;2.13;;
65187;SDS011;51775;51.148;6.950;2023-05-14T03:39:02;2.60;;;2.00;;
65187;SDS011;51775;51.148;6.950;2023-05-14T03:41:28;2.58;;;1.92;;
65187;SDS011;51775;51.148;6.950;2023-05-14T03:43:53;2.58;;;1.95;;
65187;SDS011;51775;51.148;6.950;2023-05-14T03:46:18;2.80;;;1.98;;
65187;SDS011;51775;51.148;6.950;2023-05-14T03:48:43;2.72;;;2.05;;
65187;SDS011;51775;51.148;6.950;2023-05-14T03:51:09;2.58;;;1.90;;
65187;SDS011;51775;51.148;6.950;2023-05-14T03:53:34;2.60;;;1.92;;
65187;SDS011;51775;51.148;6.950;2023-05-14T03:55:59;2.97;;;2.08;;
65187;SDS011;51775;51.148;6.950;2023-05-14T03:58:24;2.95;;;2.03;;
65187;SDS011;51775;51.148;6.950;2023-05-14T04:00:50;2.40;;;1.90;;
65187;SDS011;51775;51.148;6.950;2023-05-14T04:03:15;2.53;;;1.85;;
65187;SDS011;51775;51.148;6.950;2023-05-14T04:05:40;2.85;;;1.90;;
65187;SDS011;51775;51.148;6.950;2023-05-14T04:08:06;2.65;;;2.00;;
65187;SDS011;51775;51.148;6.950;2023-05-14T04:10:31;2.63;;;1.92;;
65187;SDS011;51775;51.148;6.950;2023-05-14T04:12:56;2.40;;;1.90;;
65187;SDS011;51775;51.148;6.950;2023-05-14T04:15:21;2.72;;;1.90;;
65187;SDS011;51775;51.148;6.950;2023-05-14T04:17:50;2.35;;;1.70;;
65187;SDS011;51775;51.148;6.950;2023-05-14T04:20:15;3.13;;;2.00;;
65187;SDS011;51775;51.148;6.950;2023-05-14T04:22:41;2.70;;;2.00;;
65187;SDS011;51775;51.148;6.950;2023-05-14T04:25:06;2.80;;;1.90;;
65187;SDS011;51775;51.148;6.950;2023-05-14T04:27:32;2.83;;;1.98;;
65187;SDS011;51775;51.148;6.950;2023-05-14T04:29:57;2.60;;;1.98;;
65187;SDS011;51775;51.148;6.950;2023-05-14T04:32:23;3.03;;;2.08;;
65187;SDS011;51775;51.148;6.950;2023-05-14T04:34:48;2.63;;;1.90;;
65187;SDS011;51775;51.148;6.950;2023-05-14T04:37:13;2.17;;;1.70;;
65187;SDS011;51775;51.148;6.950;2023-05-14T04:39:38;2.90;;;2.00;;
65187;SDS011;51775;51.148;6.950;2023-05-14T04:42:04;2.95;;;2.20;;
65187;SDS011;51775;51.148;6.950;2023-05-14T04:44:29;2.40;;;1.90;;
65187;SDS011;51775;51.148;6.950;2023-05-14T04:46:55;2.63;;;1.90;;
65187;SDS011;51775;51.148;6.950;2023-05-14T04:49:20;2.53;;;1.83;;
65187;SDS011;51775;51.148;6.950;2023-05-14T04:51:45;2.70;;;2.00;;
65187;SDS011;51775;51.148;6.950;2023-05-14T04:54:11;2.63;;;1.90;;
65187;SDS011;51775;51.148;6.950;2023-05-14T04:56:42;2.30;;;1.80;;
65187;SDS011;51775;51.148;6.950;2023-05-14T04:59:07;2.70;;;1.98;;
65187;SDS011;51775;51.148;6.950;2023-05-14T05:01:32;2.95;;;2.00;;
65187;SDS011;51775;51.148;6.950;2023-05-14T05:03:58;2.95;;;1.98;;
65187;SDS011;51775;51.148;6.950;2023-05-14T05:06:23;2.60;;;1.90;;
65187;SDS011;51775;51.148;6.950;2023-05-14T05:08:48;2.58;;;1.90;;
65187;SDS011;51775;51.148;6.950;2023-05-14T05:11:14;2.40;;;1.90;;
65187;SDS011;51775;51.148;6.950;2023-05-14T05:13:39;2.58;;;2.00;;
65187;SDS011;51775;51.148;6.950;2023-05-14T05:16:05;3.30;;;2.00;;
65187;SDS011;51775;51.148;6.950;2023-05-14T05:18:30;2.50;;;1.95;;
65187;SDS011;51775;51.148;6.950;2023-05-14T05:20:55;2.60;;;1.90;;
65187;SDS011;51775;51.148;6.950;2023-05-14T05:23:21;2.97;;;2.00;;
65187;SDS011;51775;51.148;6.950;2023-05-14T05:25:46;2.67;;;1.80;;
65187;SDS011;51775;51.148;6.950;2023-05-14T05:28:11;2.90;;;2.08;;
65187;SDS011;51775;51.148;6.950;2023-05-14T05:30:36;2.78;;;2.00;;
65187;SDS011;51775;51.148;6.950;2023-05-14T05:33:02;2.95;;;1.92;;
65187;SDS011;51775;51.148;6.950;2023-05-14T05:35:29;2.65;;;1.88;;
65187;SDS011;51775;51.148;6.950;2023-05-14T05:37:54;2.60;;;2.00;;
65187;SDS011;51775;51.148;6.950;2023-05-14T05:40:20;2.58;;;1.90;;
65187;SDS011;51775;51.148;6.950;2023-05-14T05:42:45;2.78;;;2.03;;
65187;SDS011;51775;51.148;6.950;2023-05-14T05:45:10;2.45;;;1.92;;
65187;SDS011;51775;51.148;6.950;2023-05-14T05:47:35;2.90;;;1.98;;
65187;SDS011;51775;51.148;6.950;2023-05-14T05:50:01;2.53;;;1.98;;
65187;SDS011;51775;51.148;6.950;2023-05-14T05:52:35;2.72;;;2.00;;
65187;SDS011;51775;51.148;6.950;2023-05-14T05:55:00;2.70;;;1.90;;
65187;SDS011;51775;51.148;6.950;2023-05-14T05:57:25;2.50;;;2.00;;
65187;SDS011;51775;51.148;6.950;2023-05-14T05:59:51;2.72;;;2.05;;
65187;SDS011;51775;51.148;6.950;2023-05-14T06:02:16;2.70;;;2.00;;
65187;SDS011;51775;51.148;6.950;2023-05-14T06:04:43;2.60;;;1.85;;
65187;SDS011;51775;51.148;6.950;2023-05-14T06:07:09;3.05;;;2.05;;
65187;SDS011;51775;51.148;6.950;2023-05-14T06:09:34;2.97;;;2.00;;
65187;SDS011;51775;51.148;6.950;2023-05-14T06:12:00;2.65;;;2.03;;
65187;SDS011;51775;51.148;6.950;2023-05-14T06:14:25;3.08;;;2.22;;
65187;SDS011;51775;51.148;6.950;2023-05-14T06:16:51;2.60;;;2.00;;
65187;SDS011;51775;51.148;6.950;2023-05-14T06:19:16;3.00;;;2.35;;
65187;SDS011;51775;51.148;6.950;2023-05-14T06:21:41;2.90;;;2.20;;
65187;SDS011;51775;51.148;6.950;2023-05-14T06:24:06;2.90;;;2.15;;
65187;SDS011;51775;51.148;6.950;2023-05-14T06:26:32;2.65;;;2.10;;
65187;SDS011;51775;51.148;6.950;2023-05-14T06:28:57;3.10;;;2.30;;
65187;SDS011;51775;51.148;6.950;2023-05-14T06:31:22;3.30;;;2.10;;
65187;SDS011;51775;51.148;6.950;2023-05-14T06:33:48;2.67;;;2.10;;
65187;SDS011;51775;51.148;6.950;2023-05-14T06:36:13;3.45;;;2.50;;
65187;SDS011;51775;51.148;6.950;2023-05-14T06:38:38;3.65;;;2.28;;
65187;SDS011;51775;51.148;6.950;2023-05-14T06:41:09;3.20;;;2.20;;
65187;SDS011;51775;51.148;6.950;2023-05-14T06:43:35;3.00;;;2.17;;
65187;SDS011;51775;51.148;6.950;2023-05-14T06:46:00;3.60;;;2.45;;
65187;SDS011;51775;51.148;6.950;2023-05-14T06:48:25;3.03;;;2.30;;
65187;SDS011;51775;51.148;6.950;2023-05-14T06:53:19;3.10;;;2.25;;
65187;SDS011;51775;51.148;6.950;2023-05-14T06:55:46;3.03;;;2.40;;
65187;SDS011;51775;51.148;6.950;2023-05-14T06:58:15;3.08;;;2.40;;
65187;SDS011;51775;51.148;6.950;2023-05-14T07:00:40;3.47;;;2.58;;
65187;SDS011;51775;51.148;6.950;2023-05-14T07:03:06;5.95;;;2.50;;
65187;SDS011;51775;51.148;6.950;2023-05-14T07:05:31;3.42;;;2.55;;
65187;SDS011;51775;51.148;6.950;2023-05-14T07:07:56;2.90;;;2.20;;
65187;SDS011;51775;51.148;6.950;2023-05-14T07:10:22;2.80;;;2.25;;
65187;SDS011;51775;51.148;6.950;2023-05-14T07:12:48;3.72;;;2.55;;
65187;SDS011;51775;51.148;6.950;2023-05-14T07:15:13;3.50;;;2.30;;
65187;SDS011;51775;51.148;6.950;2023-05-14T07:17:38;3.90;;;2.50;;
65187;SDS011;51775;51.148;6.950;2023-05-14T07:20:04;4.28;;;2.60;;
65187;SDS011;51775;51.148;6.950;2023-05-14T07:22:30;4.18;;;2.67;;
65187;SDS011;51775;51.148;6.950;2023-05-14T07:24:55;4.75;;;2.55;;
65187;SDS011;51775;51.148;6.950;2023-05-14T07:27:20;3.05;;;2.13;;
65187;SDS011;51775;51.148;6.950;2023-05-14T07:29:46;3.95;;;2.70;;
65187;SDS011;51775;51.148;6.950;2023-05-14T07:32:11;3.42;;;2.60;;
65187;SDS011;51775;51.148;6.950;2023-05-14T07:34:36;3.55;;;2.63;;
65187;SDS011;51775;51.148;6.950;2023-05-14T07:37:02;3.83;;;2.70;;
65187;SDS011;51775;51.148;6.950;2023-05-14T07:39:27;6.22;;;2.88;;
65187;SDS011;51775;51.148;6.950;2023-05-14T07:41:52;3.65;;;2.50;;
65187;SDS011;51775;51.148;6.950;2023-05-14T07:44:17;3.10;;;2.50;;
65187;SDS011;51775;51.148;6.950;2023-05-14T07:46:43;3.25;;;2.33;;
65187;SDS011;51775;51.148;6.950;2023-05-14T07:49:08;4.15;;;3.05;;
65187;SDS011;51775;51.148;6.950;2023-05-14T07:51:37;6.90;;;2.85;;
65187;SDS011;51775;51.148;6.950;2023-05-14T07:54:02;3.90;;;2.75;;
65187;SDS011;51775;51.148;6.950;2023-05-14T07:56:28;3.97;;;2.63;;
65187;SDS011;51775;51.148;6.950;2023-05-14T07:58:54;3.83;;;2.63;;
65187;SDS011;51775;51.148;6.950;2023-05-14T08:01:19;3.95;;;2.53;;
65187;SDS011;51775;51.148;6.950;2023-05-14T08:03:44;3.60;;;2.58;;
65187;SDS011;51775;51.148;6.950;2023-05-14T08:06:09;4.15;;;3.05;;
65187;SDS011;51775;51.148;6.950;2023-05-14T08:08:35;3.60;;;2.60;;
65187;SDS011;51775;51.148;6.950;2023-05-14T08:11:01;3.53;;;2.60;;
65187;SDS011;51775;51.148;6.950;2023-05-14T08:13:27;4.88;;;2.63;;
65187;SDS011;51775;51.148;6.950;2023-05-14T08:15:52;3.53;;;2.75;;
65187;SDS011;51775;51.148;6.950;2023-05-14T08:18:17;3.50;;;2.75;;
65187;SDS011;51775;51.148;6.950;2023-05-14T08:20:42;3.60;;;2.50;;
65187;SDS011;51775;51.148;6.950;2023-05-14T08:23:08;3.55;;;2.58;;
65187;SDS011;51775;51.148;6.950;2023-05-14T08:25:33;4.18;;;2.35;;
65187;SDS011;51775;51.148;6.950;2023-05-14T08:27:59;4.00;;;2.60;;
65187;SDS011;51775;51.148;6.950;2023-05-14T08:30:24;3.83;;;2.40;;
65187;SDS011;51775;51.148;6.950;2023-05-14T08:32:49;3.20;;;2.35;;
65187;SDS011;51775;51.148;6.950;2023-05-14T08:35:15;3.72;;;2.20;;
65187;SDS011;51775;51.148;6.950;2023-05-14T08:37:41;3.20;;;2.30;;
65187;SDS011;51775;51.148;6.950;2023-05-14T08:40:07;4.32;;;2.35;;
65187;SDS011;51775;51.148;6.950;2023-05-14T08:42:33;4.28;;;2.50;;
65187;SDS011;51775;51.148;6.950;2023-05-14T08:45:02;4.88;;;2.60;;
65187;SDS011;51775;51.148;6.950;2023-05-14T08:47:29;3.35;;;2.50;;
65187;SDS011;51775;51.148;6.950;2023-05-14T08:50:05;3.75;;;2.53;;
65187;SDS011;51775;51.148;6.950;2023-05-14T08:52:31;3.22;;;2.40;;
65187;SDS011;51775;51.148;6.950;2023-05-14T08:55:01;4.90;;;2.45;;
65187;SDS011;51775;51.148;6.950;2023-05-14T08:57:29;3.00;;;2.30;;
65187;SDS011;51775;51.148;6.950;2023-05-14T08:59:55;3.30;;;2.40;;
65187;SDS011;51775;51.148;6.950;2023-05-14T09:02:22;4.70;;;2.47;;
65187;SDS011;51775;51.148;6.950;2023-05-14T09:04:49;4.60;;;2.90;;
65187;SDS011;51775;51.148;6.950;2023-05-14T09:07:19;3.30;;;2.40;;
65187;SDS011;51775;51.148;6.950;2023-05-14T09:09:46;3.30;;;2.70;;
65187;SDS011;51775;51.148;6.950;2023-05-14T09:12:12;3.50;;;2.60;;
65187;SDS011;51775;51.148;6.950;2023-05-14T09:14:37;3.30;;;2.60;;
65187;SDS011;51775;51.148;6.950;2023-05-14T09:17:06;3.63;;;2.80;;
65187;SDS011;51775;51.148;6.950;2023-05-14T09:19:31;3.30;;;2.60;;
65187;SDS011;51775;51.148;6.950;2023-05-14T09:21:57;3.50;;;2.60;;
65187;SDS011;51775;51.148;6.950;2023-05-14T09:24:23;4.30;;;3.00;;
65187;SDS011;51775;51.148;6.950;2023-05-14T09:26:57;5.30;;;2.90;;
65187;SDS011;51775;51.148;6.950;2023-05-14T09:29:23;4.38;;;2.92;;
65187;SDS011;51775;51.148;6.950;2023-05-14T09:31:49;4.05;;;2.85;;
65187;SDS011;51775;51.148;6.950;2023-05-14T09:34:28;3.95;;;2.83;;
65187;SDS011;51775;51.148;6.950;2023-05-14T09:37:27;3.92;;;3.00;;
65187;SDS011;51775;51.148;6.950;2023-05-14T09:39:47;3.53;;;2.80;;
65187;SDS011;51775;51.148;6.950;2023-05-14T09:42:12;4.35;;;3.03;;
65187;SDS011;51775;51.148;6.950;2023-05-14T09:44:37;6.43;;;2.70;;
65187;SDS011;51775;51.148;6.950;2023-05-14T09:47:03;4.00;;;3.00;;
65187;SDS011;51775;51.148;6.950;2023-05-14T09:49:28;3.65;;;2.80;;
65187;SDS011;51775;51.148;6.950;2023-05-14T09:51:53;3.05;;;2.55;;
65187;SDS011;51775;51.148;6.950;2023-05-14T09:54:19;3.97;;;3.00;;
65187;SDS011;51775;51.148;6.950;2023-05-14T09:56:44;3.53;;;2.80;;
65187;SDS011;51775;51.148;6.950;2023-05-14T09:59:09;3.92;;;2.80;;
65187;SDS011;51775;51.148;6.950;2023-05-14T10:01:35;3.72;;;2.60;;
65187;SDS011;51775;51.148;6.950;2023-05-14T10:04:02;3.72;;;2.75;;
65187;SDS011;51775;51.148;6.950;2023-05-14T10:06:32;3.88;;;2.90;;
65187;SDS011;51775;51.148;6.950;2023-05-14T10:09:01;4.28;;;2.88;;
65187;SDS011;51775;51.148;6.950;2023-05-14T10:11:30;3.10;;;2.50;;
65187;SDS011;51775;51.148;6.950;2023-05-14T10:16:31;3.33;;;2.65;;
65187;SDS011;51775;51.148;6.950;2023-05-14T10:19:16;3.65;;;2.70;;
65187;SDS011;51775;51.148;6.950;2023-05-14T10:21:44;3.88;;;2.70;;
65187;SDS011;51775;51.148;6.950;2023-05-14T10:24:12;3.08;;;2.47;;
65187;SDS011;51775;51.148;6.950;2023-05-14T10:26:38;3.70;;;2.60;;
65187;SDS011;51775;51.148;6.950;2023-05-14T10:29:08;3.60;;;2.70;;
65187;SDS011;51775;51.148;6.950;2023-05-14T10:37:00;3.60;;;2.40;;
65187;SDS011;51775;51.148;6.950;2023-05-14T10:42:12;3.97;;;2.50;;
65187;SDS011;51775;51.148;6.950;2023-05-14T10:44:44;3.30;;;2.33;;
65187;SDS011;51775;51.148;6.950;2023-05-14T10:47:14;3.05;;;2.30;;
65187;SDS011;51775;51.148;6.950;2023-05-14T10:49:40;3.70;;;2.47;;
65187;SDS011;51775;51.148;6.950;2023-05-14T10:52:08;3.20;;;2.50;;
65187;SDS011;51775;51.148;6.950;2023-05-14T10:54:35;3.20;;;2.30;;
65187;SDS011;51775;51.148;6.950;2023-05-14T10:57:00;3.08;;;2.20;;
65187;SDS011;51775;51.148;6.950;2023-05-14T10:59:26;3.22;;;2.22;;
65187;SDS011;51775;51.148;6.950;2023-05-14T11:01:53;3.45;;;2.30;;
65187;SDS011;51775;51.148;6.950;2023-05-14T11:04:18;3.30;;;2.13;;
65187;SDS011;51775;51.148;6.950;2023-05-14T11:06:47;2.50;;;2.00;;
65187;SDS011;51775;51.148;6.950;2023-05-14T11:09:20;3.53;;;2.17;;
65187;SDS011;51775;51.148;6.950;2023-05-14T11:11:45;3.45;;;2.08;;
65187;SDS011;51775;51.148;6.950;2023-05-14T11:14:10;2.42;;;1.90;;
65187;SDS011;51775;51.148;6.950;2023-05-14T11:16:36;3.05;;;2.10;;
65187;SDS011;51775;51.148;6.950;2023-05-14T11:19:02;2.63;;;1.90;;
65187;SDS011;51775;51.148;6.950;2023-05-14T11:21:28;2.85;;;1.90;;
65187;SDS011;51775;51.148;6.950;2023-05-14T11:23:55;2.80;;;2.00;;
65187;SDS011;51775;51.148;6.950;2023-05-14T11:26:22;2.53;;;1.92;;
65187;SDS011;51775;51.148;6.950;2023-05-14T11:28:48;3.33;;;1.80;;
65187;SDS011;51775;51.148;6.950;2023-05-14T11:31:14;3.28;;;1.80;;
65187;SDS011;51775;51.148;6.950;2023-05-14T11:33:39;3.35;;;2.00;;
65187;SDS011;51775;51.148;6.950;2023-05-14T11:36:05;2.42;;;2.00;;
65187;SDS011;51775;51.148;6.950;2023-05-14T11:38:30;2.95;;;1.90;;
65187;SDS011;51775;51.148;6.950;2023-05-14T11:40:56;2.38;;;1.90;;
65187;SDS011;51775;51.148;6.950;2023-05-14T11:43:23;2.60;;;1.90;;
65187;SDS011;51775;51.148;6.950;2023-05-14T11:45:49;3.22;;;2.10;;
65187;SDS011;51775;51.148;6.950;2023-05-14T11:48:15;3.50;;;2.05;;
65187;SDS011;51775;51.148;6.950;2023-05-14T11:50:43;3.00;;;2.08;;
65187;SDS011;51775;51.148;6.950;2023-05-14T11:53:16;2.35;;;1.88;;
65187;SDS011;51775;51.148;6.950;2023-05-14T11:56:02;2.45;;;1.80;;
65187;SDS011;51775;51.148;6.950;2023-05-14T11:58:34;2.50;;;1.80;;
65187;SDS011;51775;51.148;6.950;2023-05-14T12:00:59;2.85;;;1.95;;
65187;SDS011;51775;51.148;6.950;2023-05-14T12:03:24;2.80;;;1.80;;
65187;SDS011;51775;51.148;6.950;2023-05-14T12:05:59;2.85;;;1.90;;
65187;SDS011;51775;51.148;6.950;2023-05-14T12:08:29;3.33;;;2.00;;
65187;SDS011;51775;51.148;6.950;2023-05-14T12:10:57;3.50;;;2.22;;
65187;SDS011;51775;51.148;6.950;2023-05-14T12:13:26;2.75;;;1.80;;
65187;SDS011;51775;51.148;6.950;2023-05-14T12:15:57;3.20;;;2.10;;
65187;SDS011;51775;51.148;6.950;2023-05-14T12:18:23;4.00;;;2.65;;
65187;SDS011;51775;51.148;6.950;2023-05-14T12:20:49;5.03;;;2.42;;
65187;SDS011;51775;51.148;6.950;2023-05-14T12:23:15;3.35;;;2.17;;
65187;SDS011;51775;51.148;6.950;2023-05-14T12:25:48;2.90;;;2.10;;
65187;SDS011;51775;51.148;6.950;2023-05-14T12:28:18;2.75;;;2.00;;
65187;SDS011;51775;51.148;6.950;2023-05-14T12:30:44;5.95;;;2.15;;
65187;SDS011;51775;51.148;6.950;2023-05-14T12:33:10;3.20;;;2.00;;
65187;SDS011;51775;51.148;6.950;2023-05-14T12:35:35;4.22;;;2.30;;
65187;SDS011;51775;51.148;6.950;2023-05-14T12:38:01;4.40;;;2.10;;
65187;SDS011;51775;51.148;6.950;2023-05-14T12:40:27;3.30;;;2.10;;
65187;SDS011;51775;51.148;6.950;2023-05-14T12:42:52;3.40;;;2.08;;
65187;SDS011;51775;51.148;6.950;2023-05-14T12:45:17;3.92;;;1.90;;
65187;SDS011;51775;51.148;6.950;2023-05-14T12:47:42;2.90;;;2.00;;
65187;SDS011;51775;51.148;6.950;2023-05-14T12:50:08;3.10;;;1.92;;
65187;SDS011;51775;51.148;6.950;2023-05-14T12:52:33;3.15;;;1.70;;
65187;SDS011;51775;51.148;6.950;2023-05-14T12:54:59;2.78;;;2.05;;
65187;SDS011;51775;51.148;6.950;2023-05-14T12:57:24;3.28;;;1.85;;
65187;SDS011;51775;51.148;6.950;2023-05-14T13:02:19;2.28;;;1.90;;
65187;SDS011;51775;51.148;6.950;2023-05-14T13:04:50;4.15;;;2.05;;
65187;SDS011;51775;51.148;6.950;2023-05-14T13:07:21;3.28;;;1.88;;
65187;SDS011;51775;51.148;6.950;2023-05-14T13:09:46;2.78;;;2.00;;
65187;SDS011;51775;51.148;6.950;2023-05-14T13:12:12;2.47;;;1.80;;
65187;SDS011;51775;51.148;6.950;2023-05-14T13:14:37;2.45;;;1.80;;
65187;SDS011;51775;51.148;6.950;2023-05-14T13:17:03;2.30;;;1.80;;
65187;SDS011;51775;51.148;6.950;2023-05-14T13:19:28;2.20;;;1.70;;
65187;SDS011;51775;51.148;6.950;2023-05-14T13:21:53;3.08;;;1.90;;
65187;SDS011;51775;51.148;6.950;2023-05-14T13:24:19;4.20;;;1.83;;
65187;SDS011;51775;51.148;6.950;2023-05-14T13:26:44;2.63;;;1.90;;
65187;SDS011;51775;51.148;6.950;2023-05-14T13:29:09;3.33;;;1.70;;
65187;SDS011;51775;51.148;6.950;2023-05-14T13:31:34;2.97;;;1.85;;
65187;SDS011;51775;51.148;6.950;2023-05-14T13:34:00;6.15;;;1.90;;
65187;SDS011;51775;51.148;6.950;2023-05-14T13:36:25;2.40;;;1.60;;
65187;SDS011;51775;51.148;6.950;2023-05-14T13:38:50;2.38;;;1.77;;
65187;SDS011;51775;51.148;6.950;2023-05-14T13:41:20;2.47;;;1.80;;
65187;SDS011;51775;51.148;6.950;2023-05-14T13:43:46;2.30;;;1.63;;
65187;SDS011;51775;51.148;6.950;2023-05-14T13:46:11;2.50;;;1.73;;
65187;SDS011;51775;51.148;6.950;2023-05-14T13:48:36;3.85;;;1.98;;
65187;SDS011;51775;51.148;6.950;2023-05-14T13:51:02;5.35;;;1.70;;
65187;SDS011;51775;51.148;6.950;2023-05-14T13:53:27;8.02;;;1.70;;
65187;SDS011;51775;51.148;6.950;2023-05-14T13:55:52;2.60;;;1.80;;
65187;SDS011;51775;51.148;6.950;2023-05-14T13:58:18;6.45;;;1.80;;
65187;SDS011;51775;51.148;6.950;2023-05-14T14:00:43;2.30;;;1.55;;
65187;SDS011;51775;51.148;6.950;2023-05-14T14:03:08;2.27;;;1.53;;
65187;SDS011;51775;51.148;6.950;2023-05-14T14:05:34;2.28;;;1.60;;
65187;SDS011;51775;51.148;6.950;2023-05-14T14:07:59;2.30;;;1.60;;
65187;SDS011;51775;51.148;6.950;2023-05-14T14:10:25;2.35;;;1.60;;
65187;SDS011;51775;51.148;6.950;2023-05-14T14:12:50;2.25;;;1.75;;
65187;SDS011;51775;51.148;6.950;2023-05-14T14:15:16;1.90;;;1.60;;
65187;SDS011;51775;51.148;6.950;2023-05-14T14:17:41;2.00;;;1.50;;
65187;SDS011;51775;51.148;6.950;2023-05-14T14:20:07;2.10;;;1.50;;
65187;SDS011;51775;51.148;6.950;2023-05-14T14:22:32;2.03;;;1.50;;
65187;SDS011;51775;51.148;6.950;2023-05-14T14:24:58;2.10;;;1.60;;
65187;SDS011;51775;51.148;6.950;2023-05-14T14:27:23;2.05;;;1.55;;
65187;SDS011;51775;51.148;6.950;2023-05-14T14:29:48;2.17;;;1.67;;
65187;SDS011;51775;51.148;6.950;2023-05-14T14:32:14;6.10;;;1.60;;
65187;SDS011;51775;51.148;6.950;2023-05-14T14:34:39;2.90;;;1.50;;
65187;SDS011;51775;51.148;6.950;2023-05-14T14:37:04;2.80;;;1.60;;
65187;SDS011;51775;51.148;6.950;2023-05-14T14:39:29;2.22;;;1.50;;
65187;SDS011;51775;51.148;6.950;2023-05-14T14:41:55;2.50;;;1.52;;
65187;SDS011;51775;51.148;6.950;2023-05-14T14:44:20;2.58;;;1.55;;
65187;SDS011;51775;51.148;6.950;2023-05-14T14:46:46;3.97;;;1.70;;
65187;SDS011;51775;51.148;6.950;2023-05-14T14:49:11;2.47;;;1.70;;
65187;SDS011;51775;51.148;6.950;2023-05-14T14:51:36;3.65;;;1.80;;
65187;SDS011;51775;51.148;6.950;2023-05-14T14:54:02;2.55;;;1.80;;
65187;SDS011;51775;51.148;6.950;2023-05-14T14:56:27;2.17;;;1.60;;
65187;SDS011;51775;51.148;6.950;2023-05-14T14:58:52;3.25;;;1.83;;
65187;SDS011;51775;51.148;6.950;2023-05-14T15:01:17;2.30;;;1.73;;
65187;SDS011;51775;51.148;6.950;2023-05-14T15:03:43;4.10;;;1.60;;
65187;SDS011;51775;51.148;6.950;2023-05-14T15:06:09;2.35;;;1.67;;
65187;SDS011;51775;51.148;6.950;2023-05-14T15:08:34;2.10;;;1.53;;
65187;SDS011;51775;51.148;6.950;2023-05-14T15:10:59;3.17;;;1.60;;